sensor_id;sensor_type;location;lat;lon;timestamp;pressure;altitude;pressure_sealevel;temperature;humidity
61697;BME280;47610;52.252;20.922;2023-11-22T00:00:38;100856.30;;;-1.47;100.00
61697;BME280;47610;52.252;20.922;2023-11-22T00:05:41;100853.64;;;-1.50;100.00
61697;BME280;47610;52.252;20.922;2023-11-22T00:10:45;100856.61;;;-1.51;100.00
61697;BME280;47610;52.252;20.922;2023-11-22T00:15:48;100857.92;;;-1.61;100.00
61697;BME280;47610;52.252;20.922;2023-11-22T00:20:51;100855.55;;;-1.64;100.00
61697;BME280;47610;52.252;20.922;2023-11-22T00:25:54;100866.77;;;-1.69;100.00
61697;BME280;47610;52.252;20.922;2023-11-22T00:30:57;100869.48;;;-1.73;100.00
61697;BME280;47610;52.252;20.922;2023-11-22T00:36:00;100868.52;;;-1.83;100.00
61697;BME280;47610;52.252;20.922;2023-11-22T00:41:04;100877.48;;;-1.89;100.00
61697;BME280;47610;52.252;20.922;2023-11-22T00:46:07;100877.98;;;-1.93;100.00
61697;BME280;47610;52.252;20.922;2023-11-22T00:51:10;100882.77;;;-1.98;100.00
61697;BME280;47610;52.252;20.922;2023-11-22T00:56:13;100886.75;;;-1.93;100.00
61697;BME280;47610;52.252;20.922;2023-11-22T01:01:17;100893.17;;;-1.99;100.00
61697;BME280;47610;52.252;20.922;2023-11-22T01:06:20;100902.55;;;-2.04;100.00
61697;BME280;47610;52.252;20.922;2023-11-22T01:11:23;100911.41;;;-2.05;100.00
61697;BME280;47610;52.252;20.922;2023-11-22T01:16:26;100911.05;;;-2.11;100.00
61697;BME280;47610;52.252;20.922;2023-11-22T01:21:29;100916.90;;;-2.11;100.00
61697;BME280;47610;52.252;20.922;2023-11-22T01:26:32;100911.95;;;-2.05;100.00
61697;BME280;47610;52.252;20.922;2023-11-22T01:31:35;100914.52;;;-2.03;100.00
61697;BME280;47610;52.252;20.922;2023-11-22T01:36:43;100921.29;;;-2.00;100.00
61697;BME280;47610;52.252;20.922;2023-11-22T01:41:46;100920.02;;;-2.07;100.00
61697;BME280;47610;52.252;20.922;2023-11-22T01:46:49;100920.86;;;-2.22;100.00
61697;BME280;47610;52.252;20.922;2023-11-22T01:51:53;100932.46;;;-2.22;100.00
61697;BME280;47610;52.252;20.922;2023-11-22T01:56:56;100940.06;;;-2.15;100.00
61697;BME280;47610;52.252;20.922;2023-11-22T02:02:00;100942.45;;;-2.17;100.00
61697;BME280;47610;52.252;20.922;2023-11-22T02:07:03;100937.18;;;-2.34;100.00
61697;BME280;47610;52.252;20.922;2023-11-22T02:12:08;100941.45;;;-2.47;100.00
61697;BME280;47610;52.252;20.922;2023-11-22T02:17:11;100948.49;;;-2.51;100.00
61697;BME280;47610;52.252;20.922;2023-11-22T02:22:14;100958.88;;;-2.46;100.00
61697;BME280;47610;52.252;20.922;2023-11-22T02:27:17;100966.88;;;-2.39;100.00
61697;BME280;47610;52.252;20.922;2023-11-22T02:32:20;100970.60;;;-2.30;100.00
61697;BME280;47610;52.252;20.922;2023-11-22T02:37:23;100957.19;;;-2.37;100.00
61697;BME280;47610;52.252;20.922;2023-11-22T02:42:26;100958.52;;;-2.41;100.00
61697;BME280;47610;52.252;20.922;2023-11-22T02:47:29;100963.78;;;-2.49;100.00
61697;BME280;47610;52.252;20.922;2023-11-22T02:52:33;100974.53;;;-2.49;100.00
61697;BME280;47610;52.252;20.922;2023-11-22T02:57:36;100982.77;;;-2.50;100.00
61697;BME280;47610;52.252;20.922;2023-11-22T03:02:39;100985.18;;;-2.49;100.00
61697;BME280;47610;52.252;20.922;2023-11-22T03:07:43;100991.19;;;-2.54;100.00
61697;BME280;47610;52.252;20.922;2023-11-22T03:12:46;101004.52;;;-2.56;100.00
61697;BME280;47610;52.252;20.922;2023-11-22T03:17:49;101022.09;;;-2.58;100.00
61697;BME280;47610;52.252;20.922;2023-11-22T03:22:52;101034.19;;;-2.60;100.00
61697;BME280;47610;52.252;20.922;2023-11-22T03:27:55;101038.75;;;-2.64;100.00
61697;BME280;47610;52.252;20.922;2023-11-22T03:32:58;101045.54;;;-2.70;100.00
61697;BME280;47610;52.252;20.922;2023-11-22T03:38:01;101049.77;;;-2.77;100.00
61697;BME280;47610;52.252;20.922;2023-11-22T03:43:05;101055.85;;;-2.90;100.00
61697;BME280;47610;52.252;20.922;2023-11-22T03:48:08;101076.75;;;-3.03;100.00
61697;BME280;47610;52.252;20.922;2023-11-22T03:53:11;101080.16;;;-3.14;100.00
61697;BME280;47610;52.252;20.922;2023-11-22T03:58:14;101084.17;;;-3.25;100.00
61697;BME280;47610;52.252;20.922;2023-11-22T04:03:17;101101.31;;;-3.39;100.00
61697;BME280;47610;52.252;20.922;2023-11-22T04:08:20;101116.89;;;-3.50;100.00
61697;BME280;47610;52.252;20.922;2023-11-22T04:13:24;101131.80;;;-3.59;100.00
61697;BME280;47610;52.252;20.922;2023-11-22T04:18:27;101138.52;;;-3.67;100.00
61697;BME280;47610;52.252;20.922;2023-11-22T04:23:30;101141.15;;;-3.76;100.00
61697;BME280;47610;52.252;20.922;2023-11-22T04:28:33;101136.35;;;-3.90;100.00
61697;BME280;47610;52.252;20.922;2023-11-22T04:33:36;101144.45;;;-3.98;100.00
61697;BME280;47610;52.252;20.922;2023-11-22T04:38:40;101149.68;;;-4.02;100.00
61697;BME280;47610;52.252;20.922;2023-11-22T04:43:44;101153.88;;;-4.06;100.00
61697;BME280;47610;52.252;20.922;2023-11-22T04:48:47;101161.05;;;-4.15;100.00
61697;BME280;47610;52.252;20.922;2023-11-22T04:53:50;101168.52;;;-4.21;100.00
61697;BME280;47610;52.252;20.922;2023-11-22T04:58:53;101175.48;;;-4.29;100.00
61697;BME280;47610;52.252;20.922;2023-11-22T05:03:56;101189.25;;;-4.34;100.00
61697;BME280;47610;52.252;20.922;2023-11-22T05:08:59;101191.27;;;-4.35;100.00
61697;BME280;47610;52.252;20.922;2023-11-22T05:14:02;101197.39;;;-4.35;100.00
61697;BME280;47610;52.252;20.922;2023-11-22T05:19:06;101197.08;;;-4.38;100.00
61697;BME280;47610;52.252;20.922;2023-11-22T05:24:09;101209.12;;;-4.41;100.00
61697;BME280;47610;52.252;20.922;2023-11-22T05:29:12;101205.36;;;-4.46;100.00
61697;BME280;47610;52.252;20.922;2023-11-22T05:34:16;101206.89;;;-4.52;100.00
61697;BME280;47610;52.252;20.922;2023-11-22T05:39:19;101222.82;;;-4.56;100.00
61697;BME280;47610;52.252;20.922;2023-11-22T05:44:22;101234.24;;;-4.61;100.00
61697;BME280;47610;52.252;20.922;2023-11-22T05:49:25;101238.23;;;-4.62;100.00
61697;BME280;47610;52.252;20.922;2023-11-22T05:54:28;101249.65;;;-4.65;100.00
61697;BME280;47610;52.252;20.922;2023-11-22T05:59:32;101254.20;;;-4.71;100.00
61697;BME280;47610;52.252;20.922;2023-11-22T06:04:35;101263.98;;;-4.73;100.00
61697;BME280;47610;52.252;20.922;2023-11-22T06:09:38;101256.35;;;-4.77;100.00
61697;BME280;47610;52.252;20.922;2023-11-22T06:14:41;101263.82;;;-4.77;100.00
61697;BME280;47610;52.252;20.922;2023-11-22T06:19:44;101263.09;;;-4.75;100.00
61697;BME280;47610;52.252;20.922;2023-11-22T06:24:47;101284.18;;;-4.71;100.00
61697;BME280;47610;52.252;20.922;2023-11-22T06:29:50;101294.98;;;-4.65;100.00
61697;BME280;47610;52.252;20.922;2023-11-22T06:34:53;101295.71;;;-4.60;100.00
61697;BME280;47610;52.252;20.922;2023-11-22T06:39:56;101301.63;;;-4.56;100.00
61697;BME280;47610;52.252;20.922;2023-11-22T06:45:00;101310.86;;;-4.55;100.00
61697;BME280;47610;52.252;20.922;2023-11-22T06:50:03;101323.96;;;-4.51;100.00
61697;BME280;47610;52.252;20.922;2023-11-22T06:55:07;101328.39;;;-4.51;100.00
61697;BME280;47610;52.252;20.922;2023-11-22T07:00:13;101338.05;;;-4.49;100.00
61697;BME280;47610;52.252;20.922;2023-11-22T07:05:16;101340.75;;;-4.48;100.00
61697;BME280;47610;52.252;20.922;2023-11-22T07:10:19;101334.33;;;-4.48;100.00
61697;BME280;47610;52.252;20.922;2023-11-22T07:15:22;101351.50;;;-4.44;100.00
61697;BME280;47610;52.252;20.922;2023-11-22T07:20:25;101367.73;;;-4.38;100.00
61697;BME280;47610;52.252;20.922;2023-11-22T07:25:29;101370.45;;;-4.33;100.00
61697;BME280;47610;52.252;20.922;2023-11-22T07:30:32;101366.27;;;-4.29;100.00
61697;BME280;47610;52.252;20.922;2023-11-22T07:35:35;101367.05;;;-4.34;100.00
61697;BME280;47610;52.252;20.922;2023-11-22T07:40:38;101382.89;;;-4.28;100.00
61697;BME280;47610;52.252;20.922;2023-11-22T07:45:41;101389.39;;;-4.27;100.00
61697;BME280;47610;52.252;20.922;2023-11-22T07:50:44;101381.77;;;-4.21;100.00
61697;BME280;47610;52.252;20.922;2023-11-22T07:55:47;101381.31;;;-4.14;100.00
61697;BME280;47610;52.252;20.922;2023-11-22T08:00:51;101380.96;;;-4.07;100.00
61697;BME280;47610;52.252;20.922;2023-11-22T08:05:54;101377.35;;;-3.95;100.00
61697;BME280;47610;52.252;20.922;2023-11-22T08:10:57;101379.29;;;-3.80;100.00
61697;BME280;47610;52.252;20.922;2023-11-22T08:16:00;101390.70;;;-1.92;100.00
61697;BME280;47610;52.252;20.922;2023-11-22T08:21:04;101397.96;;;1.49;100.00
61697;BME280;47610;52.252;20.922;2023-11-22T08:26:07;101401.20;;;4.00;100.00
61697;BME280;47610;52.252;20.922;2023-11-22T08:31:10;101406.69;;;5.03;96.89
61697;BME280;47610;52.252;20.922;2023-11-22T08:36:13;101425.06;;;5.85;90.68
61697;BME280;47610;52.252;20.922;2023-11-22T08:41:16;101426.94;;;5.48;81.53
61697;BME280;47610;52.252;20.922;2023-11-22T08:46:19;101434.21;;;4.76;75.78
61697;BME280;47610;52.252;20.922;2023-11-22T08:51:23;101443.73;;;5.46;71.78
61697;BME280;47610;52.252;20.922;2023-11-22T08:56:26;101446.23;;;6.61;67.58
61697;BME280;47610;52.252;20.922;2023-11-22T09:01:29;101460.95;;;7.53;63.85
61697;BME280;47610;52.252;20.922;2023-11-22T09:06:32;101471.65;;;7.91;63.61
61697;BME280;47610;52.252;20.922;2023-11-22T09:11:35;101478.15;;;8.58;62.43
61697;BME280;47610;52.252;20.922;2023-11-22T09:16:38;101483.58;;;8.55;60.38
61697;BME280;47610;52.252;20.922;2023-11-22T09:21:41;101472.65;;;8.62;58.30
61697;BME280;47610;52.252;20.922;2023-11-22T09:26:45;101469.14;;;7.52;54.65
61697;BME280;47610;52.252;20.922;2023-11-22T09:31:48;101457.90;;;6.63;57.17
61697;BME280;47610;52.252;20.922;2023-11-22T09:36:51;101447.33;;;6.53;55.92
61697;BME280;47610;52.252;20.922;2023-11-22T09:41:54;101431.58;;;6.72;58.29
61697;BME280;47610;52.252;20.922;2023-11-22T09:46:58;101436.09;;;8.39;56.27
61697;BME280;47610;52.252;20.922;2023-11-22T09:52:02;101430.07;;;9.68;53.56
61697;BME280;47610;52.252;20.922;2023-11-22T09:57:08;101403.83;;;7.75;48.82
61697;BME280;47610;52.252;20.922;2023-11-22T10:02:12;101403.61;;;6.07;50.35
61697;BME280;47610;52.252;20.922;2023-11-22T10:07:15;101409.38;;;4.61;54.25
61697;BME280;47610;52.252;20.922;2023-11-22T10:12:22;101410.23;;;3.76;57.80
61697;BME280;47610;52.252;20.922;2023-11-22T10:17:25;101415.32;;;3.17;61.24
61697;BME280;47610;52.252;20.922;2023-11-22T10:22:28;101420.02;;;2.88;64.26
61697;BME280;47610;52.252;20.922;2023-11-22T10:27:31;101423.70;;;2.60;66.16
61697;BME280;47610;52.252;20.922;2023-11-22T10:32:34;101416.34;;;2.41;67.63
61697;BME280;47610;52.252;20.922;2023-11-22T10:37:39;101418.38;;;2.22;69.68
61697;BME280;47610;52.252;20.922;2023-11-22T10:42:43;101427.23;;;2.05;70.39
61697;BME280;47610;52.252;20.922;2023-11-22T10:47:47;101433.31;;;1.94;72.10
61697;BME280;47610;52.252;20.922;2023-11-22T10:52:53;101427.02;;;1.76;71.66
61697;BME280;47610;52.252;20.922;2023-11-22T10:58:03;101427.04;;;1.62;72.67
61697;BME280;47610;52.252;20.922;2023-11-22T11:03:17;101423.25;;;1.53;74.60
61697;BME280;47610;52.252;20.922;2023-11-22T11:08:21;101421.84;;;1.57;76.85
61697;BME280;47610;52.252;20.922;2023-11-22T11:13:28;101411.24;;;1.58;78.76
61697;BME280;47610;52.252;20.922;2023-11-22T11:18:32;101407.66;;;1.51;77.64
61697;BME280;47610;52.252;20.922;2023-11-22T11:23:36;101415.27;;;1.37;77.80
61697;BME280;47610;52.252;20.922;2023-11-22T11:28:45;101410.30;;;1.18;76.97
61697;BME280;47610;52.252;20.922;2023-11-22T11:33:58;101399.61;;;1.04;77.32
61697;BME280;47610;52.252;20.922;2023-11-22T11:39:04;101404.45;;;1.05;77.95
61697;BME280;47610;52.252;20.922;2023-11-22T11:44:09;101415.30;;;1.04;78.74
61697;BME280;47610;52.252;20.922;2023-11-22T11:49:14;101414.67;;;1.11;80.26
61697;BME280;47610;52.252;20.922;2023-11-22T11:54:17;101399.23;;;1.10;80.15
61697;BME280;47610;52.252;20.922;2023-11-22T11:59:21;101397.89;;;1.14;80.24
61697;BME280;47610;52.252;20.922;2023-11-22T12:04:25;101389.64;;;1.08;81.01
61697;BME280;47610;52.252;20.922;2023-11-22T12:09:28;101407.29;;;1.04;81.84
61697;BME280;47610;52.252;20.922;2023-11-22T12:14:31;101392.96;;;1.13;83.16
61697;BME280;47610;52.252;20.922;2023-11-22T12:19:35;101382.88;;;1.15;82.40
61697;BME280;47610;52.252;20.922;2023-11-22T12:24:38;101393.25;;;1.19;82.93
61697;BME280;47610;52.252;20.922;2023-11-22T12:29:41;101409.02;;;1.23;84.29
61697;BME280;47610;52.252;20.922;2023-11-22T12:34:45;101422.08;;;1.28;83.98
61697;BME280;47610;52.252;20.922;2023-11-22T12:39:48;101404.44;;;1.32;83.25
61697;BME280;47610;52.252;20.922;2023-11-22T12:44:51;101392.28;;;1.33;83.68
61697;BME280;47610;52.252;20.922;2023-11-22T12:49:54;101396.00;;;1.29;83.53
61697;BME280;47610;52.252;20.922;2023-11-22T12:54:58;101392.45;;;1.25;84.10
61697;BME280;47610;52.252;20.922;2023-11-22T13:00:01;101378.00;;;1.21;84.21
61697;BME280;47610;52.252;20.922;2023-11-22T13:05:05;101385.58;;;1.20;85.36
61697;BME280;47610;52.252;20.922;2023-11-22T13:10:09;101406.25;;;1.15;85.60
61697;BME280;47610;52.252;20.922;2023-11-22T13:15:12;101414.33;;;1.11;85.62
61697;BME280;47610;52.252;20.922;2023-11-22T13:20:16;101436.33;;;1.08;86.62
61697;BME280;47610;52.252;20.922;2023-11-22T13:25:19;101431.80;;;1.01;86.28
61697;BME280;47610;52.252;20.922;2023-11-22T13:30:22;101436.30;;;0.97;86.48
61697;BME280;47610;52.252;20.922;2023-11-22T13:35:26;101451.09;;;0.88;87.34
61697;BME280;47610;52.252;20.922;2023-11-22T13:40:30;101430.88;;;0.83;87.36
61697;BME280;47610;52.252;20.922;2023-11-22T13:45:33;101443.30;;;0.75;87.00
61697;BME280;47610;52.252;20.922;2023-11-22T13:50:38;101433.42;;;0.64;87.71
61697;BME280;47610;52.252;20.922;2023-11-22T13:55:41;101440.83;;;0.57;88.83
61697;BME280;47610;52.252;20.922;2023-11-22T14:00:44;101443.23;;;0.54;90.62
61697;BME280;47610;52.252;20.922;2023-11-22T14:05:47;101436.10;;;0.49;91.65
61697;BME280;47610;52.252;20.922;2023-11-22T14:10:50;101416.59;;;0.44;92.29
61697;BME280;47610;52.252;20.922;2023-11-22T14:15:53;101415.39;;;0.41;93.00
61697;BME280;47610;52.252;20.922;2023-11-22T14:20:56;101414.69;;;0.39;93.67
61697;BME280;47610;52.252;20.922;2023-11-22T14:25:59;101401.85;;;0.39;94.73
61697;BME280;47610;52.252;20.922;2023-11-22T14:31:03;101400.12;;;0.40;95.60
61697;BME280;47610;52.252;20.922;2023-11-22T14:36:06;101372.17;;;0.41;96.86
61697;BME280;47610;52.252;20.922;2023-11-22T14:41:10;101382.55;;;0.36;97.41
61697;BME280;47610;52.252;20.922;2023-11-22T14:46:13;101367.09;;;0.28;98.50
61697;BME280;47610;52.252;20.922;2023-11-22T14:51:16;101352.35;;;0.21;99.15
61697;BME280;47610;52.252;20.922;2023-11-22T14:56:19;101350.58;;;0.12;99.37
61697;BME280;47610;52.252;20.922;2023-11-22T15:01:22;101337.11;;;-0.02;99.95
61697;BME280;47610;52.252;20.922;2023-11-22T15:06:25;101340.60;;;-0.12;100.00
61697;BME280;47610;52.252;20.922;2023-11-22T15:11:29;101361.70;;;-0.19;100.00
61697;BME280;47610;52.252;20.922;2023-11-22T15:16:32;101361.91;;;-0.25;100.00
61697;BME280;47610;52.252;20.922;2023-11-22T15:21:35;101363.44;;;-0.30;100.00
61697;BME280;47610;52.252;20.922;2023-11-22T15:26:38;101377.48;;;-0.27;100.00
61697;BME280;47610;52.252;20.922;2023-11-22T15:31:41;101388.09;;;-0.25;100.00
61697;BME280;47610;52.252;20.922;2023-11-22T15:36:44;101378.84;;;-0.23;100.00
61697;BME280;47610;52.252;20.922;2023-11-22T15:41:47;101353.50;;;-0.19;100.00
61697;BME280;47610;52.252;20.922;2023-11-22T15:46:51;101350.41;;;-0.25;100.00
61697;BME280;47610;52.252;20.922;2023-11-22T15:51:54;101376.35;;;-0.31;100.00
61697;BME280;47610;52.252;20.922;2023-11-22T15:56:57;101382.41;;;-0.27;100.00
61697;BME280;47610;52.252;20.922;2023-11-22T16:02:00;101372.82;;;-0.27;100.00
61697;BME280;47610;52.252;20.922;2023-11-22T16:07:04;101373.54;;;-0.33;100.00
61697;BME280;47610;52.252;20.922;2023-11-22T16:12:08;101379.17;;;-0.29;100.00
61697;BME280;47610;52.252;20.922;2023-11-22T16:17:11;101385.84;;;-0.27;100.00
61697;BME280;47610;52.252;20.922;2023-11-22T16:22:15;101382.02;;;-0.24;100.00
61697;BME280;47610;52.252;20.922;2023-11-22T16:27:18;101379.95;;;-0.21;100.00
61697;BME280;47610;52.252;20.922;2023-11-22T16:32:21;101367.09;;;-0.24;100.00
61697;BME280;47610;52.252;20.922;2023-11-22T16:37:24;101384.90;;;-0.24;100.00
61697;BME280;47610;52.252;20.922;2023-11-22T16:42:27;101401.02;;;-0.21;100.00
61697;BME280;47610;52.252;20.922;2023-11-22T16:47:30;101411.79;;;-0.17;100.00
61697;BME280;47610;52.252;20.922;2023-11-22T16:52:33;101416.55;;;-0.16;100.00
61697;BME280;47610;52.252;20.922;2023-11-22T16:57:37;101420.16;;;-0.15;100.00
61697;BME280;47610;52.252;20.922;2023-11-22T17:02:40;101416.63;;;-0.16;100.00
61697;BME280;47610;52.252;20.922;2023-11-22T17:07:43;101420.34;;;-0.16;100.00
61697;BME280;47610;52.252;20.922;2023-11-22T17:12:46;101424.60;;;-0.17;100.00
61697;BME280;47610;52.252;20.922;2023-11-22T17:17:49;101408.85;;;-0.18;100.00
61697;BME280;47610;52.252;20.922;2023-11-22T17:22:52;101386.30;;;-0.23;100.00
61697;BME280;47610;52.252;20.922;2023-11-22T17:27:55;101372.09;;;-0.30;100.00
61697;BME280;47610;52.252;20.922;2023-11-22T17:32:58;101362.37;;;-0.39;100.00
61697;BME280;47610;52.252;20.922;2023-11-22T17:38:02;101360.95;;;-0.44;100.00
61697;BME280;47610;52.252;20.922;2023-11-22T17:43:05;101391.23;;;-0.47;100.00
61697;BME280;47610;52.252;20.922;2023-11-22T17:48:08;101383.36;;;-0.48;100.00
61697;BME280;47610;52.252;20.922;2023-11-22T17:53:11;101361.08;;;-0.51;100.00
61697;BME280;47610;52.252;20.922;2023-11-22T17:58:14;101351.88;;;-0.57;100.00
61697;BME280;47610;52.252;20.922;2023-11-22T18:03:18;101331.48;;;-0.65;100.00
61697;BME280;47610;52.252;20.922;2023-11-22T18:08:21;101312.92;;;-0.76;100.00
61697;BME280;47610;52.252;20.922;2023-11-22T18:13:24;101296.36;;;-0.87;100.00
61697;BME280;47610;52.252;20.922;2023-11-22T18:18:27;101305.14;;;-0.96;100.00
61697;BME280;47610;52.252;20.922;2023-11-22T18:23:30;101306.63;;;-1.05;100.00
61697;BME280;47610;52.252;20.922;2023-11-22T18:28:33;101315.09;;;-1.13;100.00
61697;BME280;47610;52.252;20.922;2023-11-22T18:33:36;101313.11;;;-1.23;100.00
61697;BME280;47610;52.252;20.922;2023-11-22T18:38:40;101305.85;;;-1.27;100.00
61697;BME280;47610;52.252;20.922;2023-11-22T18:43:43;101299.91;;;-1.32;100.00
61697;BME280;47610;52.252;20.922;2023-11-22T18:48:46;101283.85;;;-1.44;100.00
61697;BME280;47610;52.252;20.922;2023-11-22T18:53:51;101286.52;;;-1.42;100.00
61697;BME280;47610;52.252;20.922;2023-11-22T18:58:54;101278.27;;;-1.41;100.00
61697;BME280;47610;52.252;20.922;2023-11-22T19:03:57;101275.09;;;-1.40;100.00
61697;BME280;47610;52.252;20.922;2023-11-22T19:09:00;101288.90;;;-1.41;100.00
61697;BME280;47610;52.252;20.922;2023-11-22T19:14:04;101303.42;;;-1.43;100.00
61697;BME280;47610;52.252;20.922;2023-11-22T19:19:07;101302.46;;;-1.48;100.00
61697;BME280;47610;52.252;20.922;2023-11-22T19:24:10;101293.28;;;-1.49;100.00
61697;BME280;47610;52.252;20.922;2023-11-22T19:29:14;101287.90;;;-1.54;100.00
61697;BME280;47610;52.252;20.922;2023-11-22T19:34:17;101264.81;;;-1.62;100.00
61697;BME280;47610;52.252;20.922;2023-11-22T19:39:20;101253.29;;;-1.67;100.00
61697;BME280;47610;52.252;20.922;2023-11-22T19:44:23;101245.56;;;-1.70;100.00
61697;BME280;47610;52.252;20.922;2023-11-22T19:49:26;101252.58;;;-1.67;100.00
61697;BME280;47610;52.252;20.922;2023-11-22T19:54:29;101254.84;;;-1.63;100.00
61697;BME280;47610;52.252;20.922;2023-11-22T19:59:32;101248.37;;;-1.60;100.00
61697;BME280;47610;52.252;20.922;2023-11-22T20:04:35;101218.40;;;-1.59;100.00
61697;BME280;47610;52.252;20.922;2023-11-22T20:09:39;101199.80;;;-1.54;100.00
61697;BME280;47610;52.252;20.922;2023-11-22T20:14:42;101193.94;;;-1.54;100.00
61697;BME280;47610;52.252;20.922;2023-11-22T20:19:45;101195.06;;;-1.58;100.00
61697;BME280;47610;52.252;20.922;2023-11-22T20:24:48;101185.48;;;-1.58;100.00
61697;BME280;47610;52.252;20.922;2023-11-22T20:29:51;101194.49;;;-1.58;100.00
61697;BME280;47610;52.252;20.922;2023-11-22T20:34:54;101207.47;;;-1.60;100.00
61697;BME280;47610;52.252;20.922;2023-11-22T20:39:58;101224.01;;;-1.55;100.00
61697;BME280;47610;52.252;20.922;2023-11-22T20:45:01;101221.06;;;-1.50;100.00
61697;BME280;47610;52.252;20.922;2023-11-22T20:50:05;101193.98;;;-1.50;100.00
61697;BME280;47610;52.252;20.922;2023-11-22T20:55:08;101189.37;;;-1.46;100.00
61697;BME280;47610;52.252;20.922;2023-11-22T21:00:13;101190.77;;;-1.44;100.00
61697;BME280;47610;52.252;20.922;2023-11-22T21:05:16;101155.80;;;-1.44;100.00
61697;BME280;47610;52.252;20.922;2023-11-22T21:10:19;101140.40;;;-1.47;100.00
61697;BME280;47610;52.252;20.922;2023-11-22T21:15:23;101140.01;;;-1.47;100.00
61697;BME280;47610;52.252;20.922;2023-11-22T21:20:26;101134.23;;;-1.44;100.00
61697;BME280;47610;52.252;20.922;2023-11-22T21:25:29;101133.88;;;-1.45;100.00
61697;BME280;47610;52.252;20.922;2023-11-22T21:30:32;101134.00;;;-1.48;100.00
61697;BME280;47610;52.252;20.922;2023-11-22T21:35:35;101147.23;;;-1.49;100.00
61697;BME280;47610;52.252;20.922;2023-11-22T21:40:38;101133.16;;;-1.46;100.00
61697;BME280;47610;52.252;20.922;2023-11-22T21:45:42;101118.19;;;-1.42;100.00
61697;BME280;47610;52.252;20.922;2023-11-22T21:50:45;101094.90;;;-1.42;100.00
61697;BME280;47610;52.252;20.922;2023-11-22T21:55:48;101075.07;;;-1.44;100.00
61697;BME280;47610;52.252;20.922;2023-11-22T22:00:51;101053.15;;;-1.53;100.00
61697;BME280;47610;52.252;20.922;2023-11-22T22:05:55;101038.96;;;-1.61;100.00
61697;BME280;47610;52.252;20.922;2023-11-22T22:10:59;101024.65;;;-1.63;100.00
61697;BME280;47610;52.252;20.922;2023-11-22T22:16:02;101042.70;;;-1.65;100.00
61697;BME280;47610;52.252;20.922;2023-11-22T22:21:05;101043.15;;;-1.76;100.00
61697;BME280;47610;52.252;20.922;2023-11-22T22:26:09;101044.90;;;-1.85;100.00
61697;BME280;47610;52.252;20.922;2023-11-22T22:31:12;101037.85;;;-1.91;100.00
61697;BME280;47610;52.252;20.922;2023-11-22T22:36:17;101033.75;;;-1.88;100.00
61697;BME280;47610;52.252;20.922;2023-11-22T22:41:21;101008.10;;;-1.91;100.00
61697;BME280;47610;52.252;20.922;2023-11-22T22:46:24;100990.98;;;-1.89;100.00
61697;BME280;47610;52.252;20.922;2023-11-22T22:51:27;100982.80;;;-1.87;100.00
61697;BME280;47610;52.252;20.922;2023-11-22T22:56:30;100949.61;;;-1.86;100.00
61697;BME280;47610;52.252;20.922;2023-11-22T23:01:34;100921.71;;;-1.86;100.00
61697;BME280;47610;52.252;20.922;2023-11-22T23:06:37;100911.80;;;-1.90;100.00
61697;BME280;47610;52.252;20.922;2023-11-22T23:11:40;100908.88;;;-1.91;100.00
61697;BME280;47610;52.252;20.922;2023-11-22T23:16:43;100907.85;;;-1.90;100.00
61697;BME280;47610;52.252;20.922;2023-11-22T23:21:46;100898.05;;;-1.96;100.00
61697;BME280;47610;52.252;20.922;2023-11-22T23:26:49;100894.27;;;-2.01;100.00
61697;BME280;47610;52.252;20.922;2023-11-22T23:31:53;100878.39;;;-2.02;100.00
61697;BME280;47610;52.252;20.922;2023-11-22T23:36:56;100860.46;;;-2.03;100.00
61697;BME280;47610;52.252;20.922;2023-11-22T23:41:59;100843.58;;;-2.04;100.00
61697;BME280;47610;52.252;20.922;2023-11-22T23:47:02;100817.86;;;-2.08;100.00
61697;BME280;47610;52.252;20.922;2023-11-22T23:52:05;100816.44;;;-2.08;100.00
61697;BME280;47610;52.252;20.922;2023-11-22T23:57:09;100796.53;;;-2.06;100.00
